createdAt,value
2019-01-26T00:00:21.055Z,6.30
2019-01-26T00:01:20.741Z,7.70
2019-01-26T00:02:20.760Z,6.80
2019-01-26T00:03:20.998Z,6.90
2019-01-26T00:04:20.737Z,6.50
2019-01-26T00:05:20.957Z,7.00
2019-01-26T00:06:20.938Z,6.90
2019-01-26T00:07:20.694Z,5.90
2019-01-26T00:08:20.681Z,6.00
2019-01-26T00:09:20.677Z,5.70
2019-01-26T00:10:20.679Z,5.30
2019-01-26T00:11:21.062Z,6.60
2019-01-26T00:12:20.660Z,5.30
2019-01-26T00:13:21.031Z,7.30
2019-01-26T00:14:21.038Z,6.40
2019-01-26T00:15:21.026Z,7.90
2019-01-26T00:16:21.196Z,5.30
2019-01-26T00:17:20.626Z,8.60
2019-01-26T00:18:20.868Z,7.60
2019-01-26T00:19:20.612Z,6.60
2019-01-26T00:20:20.877Z,6.20
2019-01-26T00:21:20.643Z,7.10
2019-01-26T00:22:20.847Z,7.40
2019-01-26T00:23:20.615Z,6.30
2019-01-26T00:24:20.864Z,6.90
2019-01-26T00:25:20.873Z,8.00
2019-01-26T00:26:20.862Z,9.00
2019-01-26T00:27:20.849Z,7.50
2019-01-26T00:28:20.815Z,7.40
2019-01-26T00:29:20.545Z,7.60
2019-01-26T00:30:20.536Z,5.60
2019-01-26T00:31:20.528Z,7.60
2019-01-26T00:32:20.558Z,7.00
2019-01-26T00:33:20.809Z,8.90
2019-01-26T00:34:20.545Z,7.70
2019-01-26T00:35:20.534Z,7.40
2019-01-26T00:36:20.501Z,12.40
2019-01-26T00:37:20.517Z,18.40
2019-01-26T00:38:20.755Z,14.60
2019-01-26T00:39:20.721Z,21.30
2019-01-26T00:40:20.506Z,9.10
2019-01-26T00:41:20.475Z,15.10
2019-01-26T00:42:20.450Z,17.00
2019-01-26T00:43:20.682Z,18.20
2019-01-26T00:44:20.478Z,9.90
2019-01-26T00:45:20.472Z,11.00
2019-01-26T00:46:20.803Z,8.60
2019-01-26T00:47:20.797Z,8.60
2019-01-26T00:48:20.821Z,8.90
2019-01-26T00:49:20.786Z,9.90
2019-01-26T00:50:20.811Z,14.00
2019-01-26T00:51:20.429Z,10.60
2019-01-26T00:52:20.389Z,9.50
2019-01-26T00:53:20.372Z,8.90
2019-01-26T00:54:20.668Z,10.60
2019-01-26T00:55:20.625Z,11.60
2019-01-26T00:56:20.382Z,11.80
2019-01-26T00:57:20.383Z,10.50
2019-01-26T00:58:23.642Z,11.00
2019-01-26T00:59:20.598Z,10.70
2019-01-26T01:00:20.356Z,10.80
2019-01-26T01:01:20.593Z,13.10
2019-01-26T01:02:20.596Z,14.00
2019-01-26T01:03:20.593Z,9.80
2019-01-26T01:04:20.342Z,13.70
2019-01-26T01:05:20.284Z,12.40
2019-01-26T01:06:20.558Z,13.60
2019-01-26T01:07:20.512Z,12.90
2019-01-26T01:08:20.307Z,11.60
2019-01-26T01:09:20.288Z,12.50
2019-01-26T01:10:20.259Z,15.00
2019-01-26T01:11:20.241Z,15.40
2019-01-26T01:12:20.506Z,15.70
2019-01-26T01:13:20.494Z,17.50
2019-01-26T01:14:20.269Z,12.20
2019-01-26T01:15:20.255Z,11.90
2019-01-26T01:16:20.490Z,12.40
2019-01-26T01:17:20.241Z,14.00
2019-01-26T01:18:20.444Z,15.00
2019-01-26T01:19:20.231Z,14.20
2019-01-26T01:20:20.431Z,12.70
2019-01-26T01:21:20.469Z,14.40
2019-01-26T01:22:20.207Z,13.90
2019-01-26T01:23:20.414Z,14.40
2019-01-26T01:24:20.469Z,13.90
2019-01-26T01:25:20.430Z,13.60
2019-01-26T01:26:20.145Z,14.30
2019-01-26T01:27:20.416Z,10.90
2019-01-26T01:28:20.393Z,12.70
2019-01-26T01:29:20.136Z,10.30
2019-01-26T01:30:20.360Z,13.80
2019-01-26T01:31:20.372Z,14.30
2019-01-26T01:32:20.372Z,11.60
2019-01-26T01:33:20.366Z,11.00
2019-01-26T01:34:20.104Z,11.00
2019-01-26T01:35:20.130Z,14.30
2019-01-26T01:36:20.089Z,16.90
2019-01-26T01:37:20.113Z,16.60
2019-01-26T01:38:20.335Z,17.00
2019-01-26T01:39:20.375Z,23.00
2019-01-26T01:40:20.311Z,22.00
2019-01-26T01:41:20.284Z,20.30
2019-01-26T01:42:20.032Z,20.00
2019-01-26T01:43:20.055Z,29.20
2019-01-26T01:44:20.265Z,30.60
2019-01-26T01:45:20.055Z,34.20
2019-01-26T01:46:20.044Z,30.00
2019-01-26T01:47:20.258Z,37.90
2019-01-26T01:48:19.992Z,37.10
2019-01-26T01:49:20.018Z,38.80
2019-01-26T01:50:20.008Z,41.20
2019-01-26T01:51:20.002Z,41.10
2019-01-26T01:52:20.005Z,35.90
2019-01-26T01:53:20.202Z,34.40
2019-01-26T01:54:19.955Z,31.40
2019-01-26T01:55:20.182Z,33.50
2019-01-26T01:56:19.977Z,28.60
2019-01-26T01:57:20.195Z,29.20
2019-01-26T01:58:20.206Z,26.10
2019-01-26T01:59:20.210Z,28.60
2019-01-26T02:00:19.950Z,26.60
2019-01-26T02:01:20.204Z,24.80
2019-01-26T02:02:20.155Z,23.10
2019-01-26T02:03:19.892Z,23.00
2019-01-26T02:04:20.172Z,19.00
2019-01-26T02:05:20.142Z,22.30
2019-01-26T02:06:19.909Z,21.80
2019-01-26T02:07:19.900Z,23.50
2019-01-26T02:08:20.093Z,19.60
2019-01-26T02:09:19.878Z,21.20
2019-01-26T02:10:20.123Z,22.30
2019-01-26T02:11:20.106Z,19.10
2019-01-26T02:12:20.120Z,21.10
2019-01-26T02:13:20.104Z,19.50
2019-01-26T02:14:20.040Z,18.50
2019-01-26T02:15:20.080Z,20.60
2019-01-26T02:16:20.079Z,21.30
2019-01-26T02:17:19.830Z,18.50
2019-01-26T02:18:20.033Z,18.70
2019-01-26T02:19:19.790Z,20.10
2019-01-26T02:20:19.808Z,21.50
2019-01-26T02:21:20.017Z,19.20
2019-01-26T02:22:20.015Z,23.00
2019-01-26T02:23:20.009Z,17.10
2019-01-26T02:24:19.778Z,18.60
2019-01-26T02:25:19.992Z,18.80
2019-01-26T02:26:19.960Z,19.90
2019-01-26T02:27:19.994Z,20.10
2019-01-26T02:28:19.988Z,17.60
2019-01-26T02:29:19.715Z,19.30
2019-01-26T02:30:19.971Z,16.50
2019-01-26T02:31:19.693Z,14.60
2019-01-26T02:32:19.993Z,20.10
2019-01-26T02:33:19.930Z,18.50
2019-01-26T02:34:19.937Z,17.50
2019-01-26T02:35:19.908Z,21.10
2019-01-26T02:36:19.696Z,21.00
2019-01-26T02:37:19.663Z,17.20
2019-01-26T02:38:19.691Z,17.50
2019-01-26T02:39:19.679Z,19.10
2019-01-26T02:40:19.937Z,21.70
2019-01-26T02:41:19.858Z,19.50
2019-01-26T02:42:19.648Z,17.20
2019-01-26T02:43:19.915Z,18.40
2019-01-26T02:44:19.632Z,19.40
2019-01-26T02:45:19.608Z,18.00
2019-01-26T02:46:19.872Z,16.40
2019-01-26T02:47:19.838Z,18.20
2019-01-26T02:48:19.843Z,18.60
2019-01-26T02:49:19.614Z,15.70
2019-01-26T02:50:19.807Z,19.00
2019-01-26T02:51:19.821Z,18.80
2019-01-26T02:52:19.856Z,16.80
2019-01-26T02:53:19.550Z,16.50
2019-01-26T02:54:19.537Z,17.50
2019-01-26T02:55:19.542Z,19.90
2019-01-26T02:56:19.552Z,19.60
2019-01-26T02:57:19.561Z,18.40
2019-01-26T02:58:19.537Z,18.40
2019-01-26T02:59:19.777Z,19.30
2019-01-26T03:00:19.750Z,19.70
2019-01-26T03:01:19.782Z,22.90
2019-01-26T03:02:19.487Z,18.90
2019-01-26T03:03:19.474Z,17.40
2019-01-26T03:04:19.471Z,17.80
2019-01-26T03:05:19.733Z,16.70
2019-01-26T03:06:19.740Z,18.40
2019-01-26T03:07:19.677Z,17.80
2019-01-26T03:08:19.725Z,18.80
2019-01-26T03:09:19.439Z,23.30
2019-01-26T03:10:19.457Z,15.00
2019-01-26T03:11:19.496Z,17.20
2019-01-26T03:12:19.423Z,20.40
2019-01-26T03:13:19.705Z,15.90
2019-01-26T03:14:19.635Z,18.00
2019-01-26T03:15:19.668Z,15.30
2019-01-26T03:16:19.667Z,15.90
2019-01-26T03:17:19.680Z,19.60
2019-01-26T03:18:19.409Z,19.10
2019-01-26T03:19:19.406Z,14.90
2019-01-26T03:20:19.360Z,19.20
2019-01-26T03:21:19.355Z,16.00
2019-01-26T03:22:19.648Z,18.40
2019-01-26T03:23:19.649Z,16.20
2019-01-26T03:24:19.330Z,15.20
2019-01-26T03:25:19.354Z,17.70
2019-01-26T03:26:19.316Z,18.60
2019-01-26T03:27:19.569Z,19.20
2019-01-26T03:28:19.535Z,18.40
2019-01-26T03:29:19.336Z,18.20
2019-01-26T03:30:19.334Z,19.20
2019-01-26T03:31:19.318Z,15.50
2019-01-26T03:32:19.570Z,14.00
2019-01-26T03:33:19.284Z,17.10
2019-01-26T03:34:19.520Z,18.10
2019-01-26T03:35:19.522Z,15.50
2019-01-26T03:36:19.261Z,16.70
2019-01-26T03:37:19.637Z,17.60
2019-01-26T03:38:19.273Z,16.50
2019-01-26T03:39:19.626Z,14.20
2019-01-26T03:40:19.261Z,19.30
2019-01-26T03:41:19.581Z,16.90
2019-01-26T03:42:19.604Z,16.00
2019-01-26T03:43:19.579Z,14.80
2019-01-26T03:44:19.193Z,16.00
2019-01-26T03:45:19.187Z,19.90
2019-01-26T03:46:19.181Z,17.70
2019-01-26T03:47:19.455Z,15.60
2019-01-26T03:48:19.451Z,18.00
2019-01-26T03:49:19.203Z,18.60
2019-01-26T03:50:19.156Z,16.30
2019-01-26T03:51:19.172Z,18.80
2019-01-26T03:52:19.408Z,17.90
2019-01-26T03:53:19.124Z,14.80
2019-01-26T03:54:19.156Z,17.80
2019-01-26T03:55:19.376Z,17.40
2019-01-26T03:56:19.122Z,16.80
2019-01-26T03:57:20.231Z,19.70
2019-01-26T03:58:19.363Z,15.60
2019-01-26T03:59:19.167Z,15.50
2019-01-26T04:00:19.118Z,16.10
2019-01-26T04:01:19.081Z,19.00
2019-01-26T04:02:19.325Z,17.20
2019-01-26T04:03:19.340Z,16.00
2019-01-26T04:04:19.064Z,16.30
2019-01-26T04:05:19.348Z,19.40
2019-01-26T04:06:19.307Z,19.60
2019-01-26T04:07:19.298Z,14.90
2019-01-26T04:08:19.067Z,17.90
2019-01-26T04:09:19.286Z,20.30
2019-01-26T04:10:19.006Z,16.90
2019-01-26T04:11:19.011Z,15.70
2019-01-26T04:12:19.236Z,20.00
2019-01-26T04:13:19.234Z,19.60
2019-01-26T04:14:19.291Z,16.30
2019-01-26T04:15:18.985Z,17.20
2019-01-26T04:16:19.241Z,16.90
2019-01-26T04:17:22.016Z,17.50
2019-01-26T04:18:18.949Z,17.90
2019-01-26T04:19:18.965Z,17.80
2019-01-26T04:20:18.973Z,16.20
2019-01-26T04:21:19.216Z,21.60
2019-01-26T04:22:18.928Z,18.50
2019-01-26T04:23:19.192Z,16.10
2019-01-26T04:24:19.167Z,15.60
2019-01-26T04:25:18.911Z,19.30
2019-01-26T04:26:18.943Z,16.90
2019-01-26T04:27:19.207Z,19.50
2019-01-26T04:28:19.171Z,19.90
2019-01-26T04:29:18.904Z,19.20
2019-01-26T04:30:18.911Z,19.80
2019-01-26T04:31:19.162Z,16.50
2019-01-26T04:32:19.164Z,21.10
2019-01-26T04:33:19.131Z,19.80
2019-01-26T04:34:19.127Z,16.10
2019-01-26T04:35:18.842Z,16.40
2019-01-26T04:36:19.137Z,18.00
2019-01-26T04:37:19.074Z,18.10
2019-01-26T04:38:18.864Z,20.70
2019-01-26T04:39:18.860Z,17.30
2019-01-26T04:40:19.231Z,18.60
2019-01-26T04:41:18.849Z,21.60
2019-01-26T04:42:18.831Z,21.30
2019-01-26T04:43:18.820Z,20.00
2019-01-26T04:44:18.794Z,17.50
2019-01-26T04:45:18.773Z,18.00
2019-01-26T04:46:18.763Z,17.70
2019-01-26T04:47:18.771Z,19.00
2019-01-26T04:48:18.755Z,17.20
2019-01-26T04:49:18.986Z,19.70
2019-01-26T04:50:18.731Z,19.00
2019-01-26T04:51:19.026Z,19.60
2019-01-26T04:52:19.001Z,17.50
2019-01-26T04:53:18.964Z,18.10
2019-01-26T04:54:18.753Z,20.40
2019-01-26T04:55:18.717Z,15.80
2019-01-26T04:56:18.991Z,18.50
2019-01-26T04:57:18.728Z,17.20
2019-01-26T04:58:18.942Z,17.80
2019-01-26T04:59:18.984Z,18.40
2019-01-26T05:00:18.902Z,16.30
2019-01-26T05:01:18.896Z,20.60
2019-01-26T05:02:18.686Z,18.80
2019-01-26T05:03:18.888Z,18.70
2019-01-26T05:04:18.882Z,20.50
2019-01-26T05:05:18.909Z,16.00
2019-01-26T05:06:18.855Z,17.00
2019-01-26T05:07:18.852Z,14.80
2019-01-26T05:08:18.663Z,15.80
2019-01-26T05:09:18.626Z,15.70
2019-01-26T05:10:18.610Z,15.60
2019-01-26T05:11:18.831Z,18.10
2019-01-26T05:12:18.890Z,14.70
2019-01-26T05:13:18.617Z,13.50
2019-01-26T05:14:18.870Z,19.00
2019-01-26T05:15:18.826Z,14.80
2019-01-26T05:16:18.551Z,12.20
2019-01-26T05:17:18.787Z,12.90
2019-01-26T05:18:18.844Z,13.90
2019-01-26T05:19:18.824Z,13.60
2019-01-26T05:20:18.788Z,15.70
2019-01-26T05:21:18.790Z,12.30
2019-01-26T05:22:18.796Z,16.40
2019-01-26T05:23:18.792Z,14.00
2019-01-26T05:24:18.542Z,14.70
2019-01-26T05:25:18.545Z,13.30
2019-01-26T05:26:18.532Z,13.30
2019-01-26T05:27:18.748Z,14.10
2019-01-26T05:28:18.496Z,12.30
2019-01-26T05:29:18.507Z,14.60
2019-01-26T05:30:18.486Z,13.00
2019-01-26T05:31:18.703Z,15.30
2019-01-26T05:32:18.707Z,19.60
2019-01-26T05:33:18.802Z,13.30
2019-01-26T05:34:18.730Z,13.90
2019-01-26T05:35:18.462Z,13.00
2019-01-26T05:36:18.465Z,14.00
2019-01-26T05:37:19.276Z,12.90
2019-01-26T05:38:18.415Z,13.40
2019-01-26T05:39:20.046Z,13.20
2019-01-26T05:40:18.422Z,13.00
2019-01-26T05:41:18.666Z,12.60
2019-01-26T05:42:18.664Z,12.60
2019-01-26T05:43:18.646Z,14.60
2019-01-26T05:44:18.625Z,13.60
2019-01-26T05:45:18.369Z,12.10
2019-01-26T05:46:18.394Z,12.10
2019-01-26T05:47:18.352Z,12.00
2019-01-26T05:48:18.340Z,13.70
2019-01-26T05:49:18.369Z,10.50
2019-01-26T05:50:18.587Z,13.60
2019-01-26T05:51:18.573Z,11.10
2019-01-26T05:52:18.318Z,12.40
2019-01-26T05:53:18.563Z,13.80
2019-01-26T05:54:18.333Z,12.90
2019-01-26T05:55:18.328Z,12.30
2019-01-26T05:56:18.579Z,11.90
2019-01-26T05:57:18.540Z,10.60
2019-01-26T05:58:18.543Z,15.90
2019-01-26T05:59:18.530Z,11.00
2019-01-26T06:00:18.277Z,12.70
2019-01-26T06:01:18.279Z,13.40
2019-01-26T06:02:18.285Z,9.80
2019-01-26T06:03:18.273Z,12.60
2019-01-26T06:04:18.458Z,13.60
2019-01-26T06:05:18.482Z,10.80
2019-01-26T06:06:18.223Z,13.60
2019-01-26T06:07:18.481Z,16.60
2019-01-26T06:08:18.243Z,13.10
2019-01-26T06:09:18.439Z,12.10
2019-01-26T06:10:18.451Z,12.50
2019-01-26T06:11:18.450Z,10.30
2019-01-26T06:12:18.436Z,13.80
2019-01-26T06:13:18.422Z,15.40
2019-01-26T06:14:18.390Z,9.70
2019-01-26T06:15:18.427Z,12.20
2019-01-26T06:16:18.143Z,13.40
2019-01-26T06:17:18.139Z,12.30
2019-01-26T06:18:18.364Z,12.80
2019-01-26T06:19:18.382Z,14.80
2019-01-26T06:20:18.355Z,11.00
2019-01-26T06:21:18.111Z,15.80
2019-01-26T06:22:18.343Z,12.40
2019-01-26T06:23:18.342Z,10.50
2019-01-26T06:24:18.360Z,11.30
2019-01-26T06:25:18.309Z,12.20
2019-01-26T06:26:18.490Z,11.50
2019-01-26T06:27:18.439Z,11.50
2019-01-26T06:28:18.095Z,12.70
2019-01-26T06:29:18.056Z,11.10
2019-01-26T06:30:18.438Z,11.30
2019-01-26T06:31:18.462Z,12.20
2019-01-26T06:32:18.072Z,11.40
2019-01-26T06:33:18.379Z,11.30
2019-01-26T06:34:18.265Z,11.70
2019-01-26T06:35:18.012Z,12.90
2019-01-26T06:36:18.013Z,12.50
2019-01-26T06:37:17.993Z,10.80
2019-01-26T06:38:18.234Z,10.70
2019-01-26T06:39:17.987Z,11.70
2019-01-26T06:40:18.248Z,10.30
2019-01-26T06:41:18.208Z,8.90
2019-01-26T06:42:18.005Z,9.00
2019-01-26T06:43:18.338Z,11.90
2019-01-26T06:44:17.951Z,9.10
2019-01-26T06:45:17.947Z,13.60
2019-01-26T06:46:18.315Z,12.10
2019-01-26T06:47:18.317Z,12.50
2019-01-26T06:48:18.339Z,13.10
2019-01-26T06:49:18.330Z,12.30
2019-01-26T06:50:17.942Z,13.10
2019-01-26T06:51:17.932Z,11.20
2019-01-26T06:52:17.936Z,9.40
2019-01-26T06:53:18.132Z,10.90
2019-01-26T06:54:18.152Z,9.30
2019-01-26T06:55:17.906Z,8.40
2019-01-26T06:56:18.164Z,9.30
2019-01-26T06:57:18.152Z,10.20
2019-01-26T06:58:18.098Z,8.40
2019-01-26T06:59:17.889Z,10.70
2019-01-26T07:00:18.101Z,10.50
2019-01-26T07:01:17.821Z,10.60
2019-01-26T07:02:17.825Z,12.80
2019-01-26T07:03:18.051Z,9.40
2019-01-26T07:04:18.070Z,10.50
2019-01-26T07:05:17.835Z,9.10
2019-01-26T07:06:18.076Z,10.40
2019-01-26T07:07:18.056Z,9.90
2019-01-26T07:08:18.071Z,9.50
2019-01-26T07:09:17.810Z,9.30
2019-01-26T07:10:17.801Z,9.50
2019-01-26T07:11:17.757Z,11.00
2019-01-26T07:12:17.749Z,10.60
2019-01-26T07:13:17.766Z,11.90
2019-01-26T07:14:17.780Z,15.50
2019-01-26T07:15:17.770Z,8.80
2019-01-26T07:16:17.967Z,11.60
2019-01-26T07:17:18.008Z,10.30
2019-01-26T07:18:17.748Z,10.20
2019-01-26T07:19:17.730Z,9.60
2019-01-26T07:20:17.953Z,15.50
2019-01-26T07:21:17.697Z,11.40
2019-01-26T07:22:17.950Z,10.00
2019-01-26T07:23:17.713Z,9.50
2019-01-26T07:24:17.912Z,8.30
2019-01-26T07:25:17.705Z,9.70
2019-01-26T07:26:17.660Z,9.20
2019-01-26T07:27:17.889Z,8.90
2019-01-26T07:28:17.673Z,12.10
2019-01-26T07:29:17.631Z,16.90
2019-01-26T07:30:17.936Z,7.80
2019-01-26T07:31:17.869Z,12.10
2019-01-26T07:32:17.876Z,8.70
2019-01-26T07:33:17.607Z,10.00
2019-01-26T07:34:17.845Z,10.80
2019-01-26T07:35:17.848Z,12.10
2019-01-26T07:36:17.584Z,9.40
2019-01-26T07:37:17.804Z,9.40
2019-01-26T07:38:17.598Z,10.60
2019-01-26T07:39:17.792Z,12.00
2019-01-26T07:40:17.560Z,10.10
2019-01-26T07:41:17.548Z,9.80
2019-01-26T07:42:17.532Z,11.00
2019-01-26T07:43:17.798Z,9.70
2019-01-26T07:44:17.577Z,9.60
2019-01-26T07:45:17.784Z,8.00
2019-01-26T07:46:17.505Z,8.70
2019-01-26T07:47:17.793Z,11.00
2019-01-26T07:48:17.512Z,11.00
2019-01-26T07:49:17.535Z,10.00
2019-01-26T07:50:17.797Z,10.10
2019-01-26T07:51:17.781Z,11.20
2019-01-26T07:52:17.725Z,9.30
2019-01-26T07:53:17.752Z,10.60
2019-01-26T07:54:17.706Z,9.20
2019-01-26T07:55:17.740Z,9.20
2019-01-26T07:56:17.744Z,7.80
2019-01-26T07:57:17.723Z,7.30
2019-01-26T07:58:17.464Z,11.40
2019-01-26T07:59:17.425Z,8.60
2019-01-26T08:00:17.451Z,10.30
2019-01-26T08:01:17.456Z,10.20
2019-01-26T08:02:17.409Z,8.10
2019-01-26T08:03:17.692Z,8.40
2019-01-26T08:04:17.629Z,10.20
2019-01-26T08:05:17.422Z,8.90
2019-01-26T08:06:17.637Z,8.30
2019-01-26T08:07:17.647Z,6.80
2019-01-26T08:08:17.623Z,8.80
2019-01-26T08:09:17.394Z,7.20
2019-01-26T08:10:17.385Z,11.50
2019-01-26T08:11:17.602Z,10.20
2019-01-26T08:12:17.596Z,8.90
2019-01-26T08:13:17.611Z,11.50
2019-01-26T08:14:17.589Z,10.50
2019-01-26T08:15:17.549Z,9.20
2019-01-26T08:16:18.134Z,7.70
2019-01-26T08:17:17.577Z,9.50
2019-01-26T08:18:23.872Z,9.40
2019-01-26T08:19:17.566Z,6.00
2019-01-26T08:20:17.545Z,8.80
2019-01-26T08:21:17.272Z,7.30
2019-01-26T08:22:17.500Z,8.70
2019-01-26T08:23:17.260Z,8.40
2019-01-26T08:24:17.494Z,6.80
2019-01-26T08:25:17.250Z,8.80
2019-01-26T08:26:17.274Z,9.20
2019-01-26T08:27:17.500Z,9.00
2019-01-26T08:28:17.254Z,13.20
2019-01-26T08:29:17.255Z,11.20
2019-01-26T08:30:17.510Z,11.40
2019-01-26T08:31:17.245Z,12.90
2019-01-26T08:32:17.440Z,10.50
2019-01-26T08:33:17.182Z,9.70
2019-01-26T08:34:17.210Z,10.00
2019-01-26T08:35:17.407Z,11.40
2019-01-26T08:36:17.438Z,9.40
2019-01-26T08:37:17.188Z,9.70
2019-01-26T08:38:17.191Z,10.70
2019-01-26T08:39:17.415Z,10.10
2019-01-26T08:40:17.180Z,9.40
2019-01-26T08:41:17.162Z,9.10
2019-01-26T08:42:17.129Z,11.20
2019-01-26T08:43:17.153Z,8.70
2019-01-26T08:44:17.422Z,9.40
2019-01-26T08:45:17.398Z,7.60
2019-01-26T08:46:17.326Z,9.40
2019-01-26T08:47:17.118Z,7.40
2019-01-26T08:48:17.382Z,14.00
2019-01-26T08:49:17.119Z,9.00
2019-01-26T08:50:17.445Z,11.10
2019-01-26T08:51:17.061Z,15.50
2019-01-26T08:52:17.427Z,9.40
2019-01-26T08:53:17.423Z,10.20
2019-01-26T08:54:17.409Z,7.00
2019-01-26T08:55:18.403Z,8.60
2019-01-26T08:56:17.409Z,9.40
2019-01-26T08:57:17.020Z,8.20
2019-01-26T08:58:17.048Z,10.30
2019-01-26T08:59:17.273Z,12.50
2019-01-26T09:00:17.495Z,6.50
2019-01-26T09:01:17.001Z,7.50
2019-01-26T09:02:17.225Z,11.20
2019-01-26T09:03:17.003Z,12.20
2019-01-26T09:04:17.276Z,7.30
2019-01-26T09:05:16.987Z,5.40
2019-01-26T09:06:17.199Z,8.30
2019-01-26T09:07:17.239Z,8.40
2019-01-26T09:08:17.216Z,8.80
2019-01-26T09:09:16.934Z,11.70
2019-01-26T09:10:16.928Z,7.80
2019-01-26T09:11:16.956Z,7.00
2019-01-26T09:12:17.179Z,9.20
2019-01-26T09:13:17.139Z,6.30
2019-01-26T09:14:16.902Z,7.50
2019-01-26T09:15:16.952Z,5.60
2019-01-26T09:16:16.914Z,9.20
2019-01-26T09:17:17.110Z,6.90
2019-01-26T09:18:16.876Z,6.80
2019-01-26T09:19:17.731Z,9.20
2019-01-26T09:20:17.116Z,6.10
2019-01-26T09:21:16.896Z,8.30
2019-01-26T09:22:17.141Z,8.90
2019-01-26T09:23:16.845Z,7.70
2019-01-26T09:24:16.865Z,8.90
2019-01-26T09:25:17.102Z,7.50
2019-01-26T09:26:16.858Z,7.60
2019-01-26T09:27:17.045Z,8.10
2019-01-26T09:28:16.795Z,11.10
2019-01-26T09:29:17.093Z,9.20
2019-01-26T09:30:17.053Z,7.00
2019-01-26T09:31:17.092Z,11.70
2019-01-26T09:32:17.041Z,6.40
2019-01-26T09:33:17.063Z,8.90
2019-01-26T09:34:16.987Z,7.60
2019-01-26T09:35:16.749Z,8.20
2019-01-26T09:36:16.979Z,9.20
2019-01-26T09:37:16.993Z,7.50
2019-01-26T09:38:16.991Z,7.00
2019-01-26T09:39:16.729Z,9.20
2019-01-26T09:40:16.754Z,6.70
2019-01-26T09:41:16.983Z,9.20
2019-01-26T09:42:16.994Z,9.20
2019-01-26T09:43:16.964Z,11.70
2019-01-26T09:44:16.978Z,7.80
2019-01-26T09:45:16.715Z,10.10
2019-01-26T09:46:16.972Z,10.40
2019-01-26T09:47:16.952Z,8.40
2019-01-26T09:48:16.937Z,7.10
2019-01-26T09:49:16.919Z,14.70
2019-01-26T09:50:16.913Z,9.50
2019-01-26T09:51:16.637Z,6.70
2019-01-26T09:52:16.668Z,8.20
2019-01-26T09:53:16.653Z,7.20
2019-01-26T09:54:17.020Z,7.30
2019-01-26T09:55:17.015Z,11.40
2019-01-26T09:56:17.017Z,10.20
2019-01-26T09:57:16.608Z,10.20
2019-01-26T09:58:16.635Z,8.80
2019-01-26T09:59:16.951Z,12.10
2019-01-26T10:00:16.585Z,9.60
2019-01-26T10:01:16.575Z,11.10
2019-01-26T10:02:16.567Z,10.70
2019-01-26T10:03:16.806Z,9.90
2019-01-26T10:04:16.546Z,7.90
2019-01-26T10:05:16.532Z,10.20
2019-01-26T10:06:16.529Z,10.70
2019-01-26T10:07:16.521Z,10.20
2019-01-26T10:08:16.901Z,8.80
2019-01-26T10:09:16.874Z,9.60
2019-01-26T10:10:16.546Z,13.10
2019-01-26T10:11:16.861Z,9.70
2019-01-26T10:12:16.837Z,10.10
2019-01-26T10:13:16.905Z,10.50
2019-01-26T10:14:16.487Z,12.20
2019-01-26T10:15:16.473Z,11.40
2019-01-26T10:16:16.495Z,12.20
2019-01-26T10:17:16.488Z,13.20
2019-01-26T10:18:16.455Z,13.90
2019-01-26T10:19:16.713Z,14.70
2019-01-26T10:20:16.439Z,16.30
2019-01-26T10:21:16.460Z,12.40
2019-01-26T10:22:16.797Z,10.50
2019-01-26T10:23:16.802Z,11.60
2019-01-26T10:24:16.793Z,11.10
2019-01-26T10:25:16.781Z,14.70
2019-01-26T10:26:16.782Z,12.30
2019-01-26T10:27:16.804Z,12.80
2019-01-26T10:28:16.378Z,12.70
2019-01-26T10:29:16.781Z,12.80
2019-01-26T10:30:16.399Z,10.10
2019-01-26T10:31:16.622Z,14.10
2019-01-26T10:32:16.632Z,12.60
2019-01-26T10:33:16.615Z,11.70
2019-01-26T10:34:16.606Z,13.00
2019-01-26T10:35:16.370Z,13.10
2019-01-26T10:36:16.590Z,11.40
2019-01-26T10:37:16.554Z,10.80
2019-01-26T10:38:16.313Z,15.90
2019-01-26T10:39:16.558Z,12.10
2019-01-26T10:40:16.322Z,14.30
2019-01-26T10:41:16.312Z,13.40
2019-01-26T10:42:16.523Z,11.50
2019-01-26T10:43:16.583Z,13.40
2019-01-26T10:44:16.509Z,15.50
2019-01-26T10:45:16.265Z,14.30
2019-01-26T10:46:16.529Z,13.70
2019-01-26T10:47:16.529Z,11.10
2019-01-26T10:48:16.277Z,15.60
2019-01-26T10:49:16.229Z,14.20
2019-01-26T10:50:16.484Z,15.40
2019-01-26T10:51:16.262Z,16.40
2019-01-26T10:52:16.488Z,11.20
2019-01-26T10:53:16.464Z,13.30
2019-01-26T10:54:16.461Z,16.40
2019-01-26T10:55:16.488Z,13.70
2019-01-26T10:56:16.450Z,14.00
2019-01-26T10:57:16.454Z,10.50
2019-01-26T10:58:16.156Z,17.30
2019-01-26T10:59:16.433Z,13.50
2019-01-26T11:00:16.433Z,12.00
2019-01-26T11:01:16.205Z,10.60
2019-01-26T11:02:16.178Z,11.50
2019-01-26T11:03:16.399Z,16.10
2019-01-26T11:04:16.391Z,9.40
2019-01-26T11:05:16.154Z,11.10
2019-01-26T11:06:16.385Z,13.90
2019-01-26T11:07:16.371Z,13.00
2019-01-26T11:08:16.119Z,14.50
2019-01-26T11:09:16.122Z,11.70
2019-01-26T11:10:16.092Z,12.30
2019-01-26T11:11:16.488Z,14.30
2019-01-26T11:12:16.461Z,12.80
2019-01-26T11:13:16.477Z,11.30
2019-01-26T11:14:16.053Z,13.00
2019-01-26T11:15:16.052Z,14.70
2019-01-26T11:16:16.041Z,14.80
2019-01-26T11:17:16.334Z,12.20
2019-01-26T11:18:16.326Z,10.10
2019-01-26T11:19:16.310Z,17.10
2019-01-26T11:20:16.060Z,13.00
2019-01-26T11:21:16.246Z,12.80
2019-01-26T11:22:16.240Z,13.70
2019-01-26T11:23:16.273Z,13.40
2019-01-26T11:24:16.264Z,12.80
2019-01-26T11:25:15.989Z,14.90
2019-01-26T11:26:16.256Z,12.30
2019-01-26T11:27:16.268Z,13.30
2019-01-26T11:28:15.959Z,13.50
2019-01-26T11:29:16.250Z,14.50
2019-01-26T11:30:15.985Z,13.90
2019-01-26T11:31:15.945Z,14.30
2019-01-26T11:32:16.191Z,11.60
2019-01-26T11:33:16.223Z,12.00
2019-01-26T11:34:16.210Z,15.50
2019-01-26T11:35:15.911Z,13.40
2019-01-26T11:36:15.932Z,15.90
2019-01-26T11:37:16.297Z,13.30
2019-01-26T11:38:16.273Z,15.00
2019-01-26T11:39:15.919Z,15.80
2019-01-26T11:40:16.296Z,14.90
2019-01-26T11:41:16.290Z,16.40
2019-01-26T11:42:15.858Z,19.90
2019-01-26T11:43:16.234Z,13.00
2019-01-26T11:44:15.879Z,17.30
2019-01-26T11:45:15.833Z,13.80
2019-01-26T11:46:15.857Z,13.50
2019-01-26T11:47:15.854Z,14.80
2019-01-26T11:48:16.224Z,15.00
2019-01-26T11:49:16.197Z,13.50
2019-01-26T11:50:16.315Z,15.90
2019-01-26T11:51:15.835Z,13.60
2019-01-26T11:52:15.782Z,13.10
2019-01-26T11:53:16.139Z,16.00
2019-01-26T11:54:16.197Z,17.70
2019-01-26T11:55:15.768Z,15.10
2019-01-26T11:56:16.002Z,19.50
2019-01-26T11:57:16.019Z,16.60
2019-01-26T11:58:16.014Z,14.50
2019-01-26T11:59:16.025Z,15.60
2019-01-26T12:00:15.975Z,14.20
2019-01-26T12:01:15.991Z,18.40
2019-01-26T12:02:15.754Z,17.10
2019-01-26T12:03:16.022Z,16.10
2019-01-26T12:04:15.701Z,16.40
2019-01-26T12:05:15.962Z,13.70
2019-01-26T12:06:15.687Z,16.60
2019-01-26T12:07:15.685Z,17.20
2019-01-26T12:08:15.943Z,21.90
2019-01-26T12:09:15.910Z,16.50
2019-01-26T12:10:15.898Z,15.10
2019-01-26T12:11:15.688Z,14.30
2019-01-26T12:12:15.660Z,19.30
2019-01-26T12:13:15.910Z,16.60
2019-01-26T12:14:15.928Z,15.30
2019-01-26T12:15:15.910Z,15.60
2019-01-26T12:16:15.648Z,13.40
2019-01-26T12:17:15.879Z,14.60
2019-01-26T12:18:15.905Z,17.40
2019-01-26T12:19:22.186Z,12.90
2019-01-26T12:20:15.859Z,15.10
2019-01-26T12:21:15.622Z,14.50
2019-01-26T12:22:15.864Z,13.20
2019-01-26T12:23:15.812Z,13.70
2019-01-26T12:24:15.854Z,13.10
2019-01-26T12:25:15.859Z,13.40
2019-01-26T12:26:15.808Z,13.90
2019-01-26T12:27:15.798Z,13.80
2019-01-26T12:28:15.799Z,17.90
2019-01-26T12:29:15.559Z,12.60
2019-01-26T12:30:15.753Z,19.70
2019-01-26T12:31:15.746Z,16.10
2019-01-26T12:32:15.502Z,15.30
2019-01-26T12:33:15.528Z,17.40
2019-01-26T12:34:15.529Z,16.50
2019-01-26T12:35:15.494Z,14.30
2019-01-26T12:36:15.489Z,13.50
2019-01-26T12:37:15.701Z,16.30
2019-01-26T12:38:15.498Z,13.50
2019-01-26T12:39:15.462Z,16.90
2019-01-26T12:40:15.714Z,15.10
2019-01-26T12:41:15.736Z,14.80
2019-01-26T12:42:15.851Z,13.10
2019-01-26T12:43:15.817Z,13.90
2019-01-26T12:44:15.415Z,17.40
2019-01-26T12:45:15.423Z,15.80
2019-01-26T12:46:15.414Z,15.00
2019-01-26T12:47:17.136Z,15.60
2019-01-26T12:48:15.803Z,14.30
2019-01-26T12:49:15.424Z,12.80
2019-01-26T12:50:15.386Z,13.50
2019-01-26T12:51:15.409Z,13.50
2019-01-26T12:52:15.392Z,15.20
2019-01-26T12:53:15.643Z,16.60
2019-01-26T12:54:15.639Z,12.70
2019-01-26T12:55:15.602Z,14.30
2019-01-26T12:56:15.339Z,14.50
2019-01-26T12:57:15.366Z,13.10
2019-01-26T12:58:15.603Z,13.30